메인 페이지
METAR-TAF:

METAR-TAF

공항 :

Great Bend Municipal Airport

그레이트벤드, 캔자스, 미국

위도: 38-21N, 경도: 098-52W, 고도: 575m

현재 날씨관측

예보는 25분 전, 18:56시(UTC)에 발표되었습니다.
남남동16kt
온도 18°C
습도 32%
기압 1011 hPa
시정: 16.1km
맑음

METAR: KGBD 191856Z AUTO 15016KT 10SM CLR 18/01 A2986 RMK AO2 SLP111 T01830006 $

시각: 13:21 (19:21 UTC)

예보

예보는 1 시간 56분 전, 17:25시(UTC)에 발표되었습니다.
예보 대상 시간: 19일 18시부터 20일 18시까지 (UTC)
남남동13kt
시정: 10km
고도 20000ft 상공 구름 조금
19일 2200시부터 (UTC)
남남동15kt, 순간 최대 풍속 23kt
시정: 10km
고도 25000ft 상공 구름 조금
20일 0200시부터 (UTC)
남남동14kt
시정: 10km
고도 25000ft 상공 구름 조금
20일 1100시부터 (UTC)
남남동14kt
시정: 10km
고도 25000ft 상공 구름 조금
20일 1500시부터 (UTC)
16kt, 순간 최대 풍속 24kt
시정: 10km
고도 2500ft 상공 흐림

TAF: KGBD 191725Z 1918/2018 16013KT P6SM FEW200 FM192200 16015G23KT P6SM FEW250 FM200200 15014KT P6SM FEW250 WS020/18040KT FM201100 16014KT P6SM FEW250 FM201500 17016G24KT P6SM OVC025

4,000개 이상의 공항 관측 자료 및 예보 (METAR 및 TAF 보고).

지도상에서 검색 가능한 기상관측소가 노란 점과 빨간 점으로 표시되어 있습니다.

기상관측소 명을 보려면 표시 위로 마우스를 이동하세요.

날씨 관측과 예보를 보려면 클릭하세요.

지도 변경 : 확대하려면 엑스 표시가 있는 녹색 버튼, 축소하려면 빼기 표시가 있는 녹색 버튼, 다음 페이지의 지도를 보려면 녹색 화살표를 클릭하세요.


METAR-TAF: